Startpagina
METAR-TAF:

METAR-TAF

Vliegvelden :

Aeropuerto de Almería

Almería, Spanje

breedte: 36-51N, lengte: 002-23W, hoogte: 15 m

Actueel weer

Dit bericht is 20 minuten geleden gemaakt, om 03:00 UTC
Wind 7 kt uit het noordwesten
Temperatuur 12°C
Vochtigheid 71%
Druk 1024 hPa
Zicht 10 km of meer

METAR: LEAM 080300Z AUTO 32007KT 9999 NCD 12/07 Q1024

Tijdstip: 04:20 (03:20 UTC)

Verwachting

Dit bericht is 1 uur en het 20 minuten geleden gemaakt, om 02:00 UTC
Verwachting geldig van 08 om 03 UTC tot 09 om 03 UTC
Wind 7 kt uit het noorden
Zicht 10 km of meer
Weinig wolken op 2000 ft
Wijzigt naar
van 08 om 09 UTC tot 08 om 11 UTC
Wind 13 kt uit het zuidwesten
Wijzigt naar
van 08 om 19 UTC tot 08 om 21 UTC
Wind 5 kt uit het noordnoordwesten

TAF: LEAM 080200Z 0803/0903 35007KT 9999 FEW020 TX18/0812Z TN10/0806Z BECMG 0809/0811 23013KT BECMG 0819/0821 33005KT

Waarnemingen en weersverwachtingen van meer dan 4000 vliegvelden (METAR en TAF).

De beschikbare stations zijn de gele en rode punten op de kaart.

Ga met uw muis naar het station om de naam te zien.

Klik dan om waarnemingen en weersverwachtingen te zien.

kaart wijzigen: klik op de groene knoppen met een zwart kruis om in te zoomen, op de groene knop met een streepje om uit te zoomen of op de groene pijlen voor aangrenzende kaarten.


METAR-TAF: